Historique des mesures à Cassis (13260), France
Quotidien Résumé Juin 13, 2018 Unités:  Métrique    US   Métrique/US
« Précédent (Jour)
Suivant (Jour) »
Quotidien Hebdomadaire Mensuel Annuel Période au choix
  Maximum: Minimum: Moyenne:
Température: TemperatureC °C 17.8 °C 19.7 °C
Point de rosée: DewpointC °C 11.0 °C 13.6 °C
Humidité: Humidity % 53 % 65 %
Vitesse du vent: 0 km/h 0 km/h 21.6 km/h
Rafales: 0 km/h - -
Vent:- - West
Pression: PressurehPa hPa 1002.0 hPa -
Précipitations: 2.0 mm    
Historical Graphs
 
 
Mesures pour : Juin 13, 2018
Heure Temperature Point de rosée Pression Vent Vitesse du vent Rafales Humidité Pluie (par heure) Conditions
TemperatureC °C DewpointC °C PressurehPa hPa Calm     Humidity % HourlyPrecipMM mm SoftwareType W/m2
00:10 20.3 °C 15.5 °C 1005.6 hPa Calm     74 % 0.0 mm open2300-1.11 W/m2
01:10 18.4 °C 14.3 °C 1004.6 hPa NW 3.4 km/h 5.1 km/h 77 % 2.0 mm open2300-1.11 W/m2
02:10 18.2 °C 14.9 °C 1004.5 hPa NNW 2.3 km/h 2.3 km/h 81 % 0.0 mm open2300-1.11 W/m2
03:10 18.1 °C 15.2 °C 1003.8 hPa NW 6.9 km/h 6.9 km/h 83 % 0.0 mm open2300-1.11 W/m2
04:10 18.3 °C 15.0 °C 1003.5 hPa WNW 23.8 km/h 23.8 km/h 81 % 0.0 mm open2300-1.11 W/m2
05:10 17.8 °C 13.9 °C 1003.2 hPa NNW 26.7 km/h 34.1 km/h 78 % 0.0 mm open2300-1.11 W/m2
06:10 17.8 °C 14.1 °C 1002.7 hPa NNE 19.2 km/h 19.2 km/h 79 % 0.0 mm open2300-1.11 W/m2
07:10 18.1 °C 14.4 °C 1002.4 hPa WNW 35.4 km/h 35.4 km/h 79 % 0.0 mm open2300-1.11 W/m2
08:10 18.5 °C 14.6 °C 1002.6 hPa NW 16.9 km/h 25.4 km/h 78 % 0.0 mm open2300-1.11 W/m2
09:10 18.5 °C 14.6 °C 1002.8 hPa NW 37 km/h 37 km/h 78 % 0.0 mm open2300-1.11 W/m2
10:10 19.2 °C 15.1 °C 1002.7 hPa NNE 27.7 km/h 27.7 km/h 77 % 0.0 mm open2300-1.11 W/m2
11:10 19.8 °C 14.8 °C 1002.8 hPa NE 11.6 km/h 30.7 km/h 73 % 0.0 mm open2300-1.11 W/m2
12:10 21.6 °C 15.2 °C 1002.4 hPa WNW 28.5 km/h 36 km/h 67 % 0.0 mm open2300-1.11 W/m2
13:10 22.9 °C 15.2 °C 1002.4 hPa WNW 30.1 km/h 30.1 km/h 62 % 0.0 mm open2300-1.11 W/m2
14:10 22.9 °C 14.9 °C 1002.0 hPa NNW 25.4 km/h 45.1 km/h 61 % 0.0 mm open2300-1.11 W/m2
15:10 23.6 °C 14.8 °C 1002.6 hPa WNW 30.7 km/h 30.7 km/h 58 % 0.0 mm open2300-1.11 W/m2
16:10 24.1 °C 15.1 °C 1002.9 hPa NW 23.8 km/h 56.6 km/h 57 % 0.0 mm open2300-1.11 W/m2
17:10 23.8 °C 14.5 °C 1003.3 hPa NW 12.2 km/h 16.3 km/h 56 % 0.0 mm open2300-1.11 W/m2
18:10 23.9 °C 14.3 °C 1002.8 hPa NNW 15.6 km/h 20.9 km/h 55 % 0.0 mm open2300-1.11 W/m2
19:10 23.3 °C 13.7 °C 1003.1 hPa NW 27.7 km/h 29.5 km/h 55 % 0.0 mm open2300-1.11 W/m2
20:10 22.1 °C 12.0 °C 1003.1 hPa WNW 49.7 km/h 49.7 km/h 53 % 0.0 mm open2300-1.11 W/m2
21:10 20.9 °C 11.8 °C 1003.2 hPa NNW 24.8 km/h 24.8 km/h 56 % 0.0 mm open2300-1.11 W/m2
22:10 20.1 °C 11.0 °C 1003.7 hPa NW 30.7 km/h 30.7 km/h 56 % 0.0 mm open2300-1.11 W/m2
23:10 19.6 °C 11.1 °C 1003.8 hPa WNW 30.1 km/h 38.8 km/h 58 % 0.0 mm open2300-1.11 W/m2
Observations météo à CASSIS
WU-History script by Weather Underground - 1 mb